sensor_id;sensor_type;location;lat;lon;timestamp;temperature;humidity
10270;DHT22;70826;50.930;5.334;2024-01-06T00:00:07;20.70;67.90
10270;DHT22;70826;50.930;5.334;2024-01-06T00:02:36;20.70;67.90
10270;DHT22;70826;50.930;5.334;2024-01-06T00:05:04;20.70;67.90
10270;DHT22;70826;50.930;5.334;2024-01-06T00:07:30;20.70;68.00
10270;DHT22;70826;50.930;5.334;2024-01-06T00:09:58;20.70;67.90
10270;DHT22;70826;50.930;5.334;2024-01-06T00:12:26;20.70;68.00
10270;DHT22;70826;50.930;5.334;2024-01-06T00:14:52;20.70;68.00
10270;DHT22;70826;50.930;5.334;2024-01-06T00:17:20;20.70;68.00
10270;DHT22;70826;50.930;5.334;2024-01-06T00:19:48;20.70;68.00
10270;DHT22;70826;50.930;5.334;2024-01-06T00:22:19;20.70;68.00
10270;DHT22;70826;50.930;5.334;2024-01-06T00:24:49;20.70;68.00
10270;DHT22;70826;50.930;5.334;2024-01-06T00:27:15;20.70;68.00
10270;DHT22;70826;50.930;5.334;2024-01-06T00:29:41;20.70;68.00
10270;DHT22;70826;50.930;5.334;2024-01-06T00:32:18;20.70;68.00
10270;DHT22;70826;50.930;5.334;2024-01-06T00:34:46;20.70;68.10
10270;DHT22;70826;50.930;5.334;2024-01-06T00:37:15;20.70;68.00
10270;DHT22;70826;50.930;5.334;2024-01-06T00:39:43;20.70;68.10
10270;DHT22;70826;50.930;5.334;2024-01-06T00:42:11;20.70;68.10
10270;DHT22;70826;50.930;5.334;2024-01-06T00:44:37;20.70;68.10
10270;DHT22;70826;50.930;5.334;2024-01-06T00:47:05;20.70;68.10
10270;DHT22;70826;50.930;5.334;2024-01-06T00:49:35;20.70;68.10
10270;DHT22;70826;50.930;5.334;2024-01-06T00:52:01;20.70;68.10
10270;DHT22;70826;50.930;5.334;2024-01-06T00:54:26;20.70;68.10
10270;DHT22;70826;50.930;5.334;2024-01-06T00:56:52;20.70;68.10
10270;DHT22;70826;50.930;5.334;2024-01-06T00:59:18;20.70;68.10
10270;DHT22;70826;50.930;5.334;2024-01-06T01:01:47;20.70;68.20
10270;DHT22;70826;50.930;5.334;2024-01-06T01:04:15;20.70;68.20
10270;DHT22;70826;50.930;5.334;2024-01-06T01:06:41;20.70;68.20
10270;DHT22;70826;50.930;5.334;2024-01-06T01:09:08;20.70;68.20
10270;DHT22;70826;50.930;5.334;2024-01-06T01:11:35;20.70;68.20
10270;DHT22;70826;50.930;5.334;2024-01-06T01:14:03;20.70;68.20
10270;DHT22;70826;50.930;5.334;2024-01-06T01:16:29;20.70;68.20
10270;DHT22;70826;50.930;5.334;2024-01-06T01:18:57;20.70;68.20
10270;DHT22;70826;50.930;5.334;2024-01-06T01:21:23;20.70;68.20
10270;DHT22;70826;50.930;5.334;2024-01-06T01:23:51;20.70;68.20
10270;DHT22;70826;50.930;5.334;2024-01-06T01:26:17;20.70;68.20
10270;DHT22;70826;50.930;5.334;2024-01-06T01:28:43;20.70;68.20
10270;DHT22;70826;50.930;5.334;2024-01-06T01:31:11;20.70;68.20
10270;DHT22;70826;50.930;5.334;2024-01-06T01:33:40;20.70;68.20
10270;DHT22;70826;50.930;5.334;2024-01-06T01:36:10;20.70;68.20
10270;DHT22;70826;50.930;5.334;2024-01-06T01:38:36;20.70;68.20
10270;DHT22;70826;50.930;5.334;2024-01-06T01:41:04;20.70;68.20
10270;DHT22;70826;50.930;5.334;2024-01-06T01:43:30;20.70;68.30
10270;DHT22;70826;50.930;5.334;2024-01-06T01:45:58;20.70;68.20
10270;DHT22;70826;50.930;5.334;2024-01-06T01:48:27;20.70;68.20
10270;DHT22;70826;50.930;5.334;2024-01-06T01:50:56;20.70;68.20
10270;DHT22;70826;50.930;5.334;2024-01-06T01:53:24;20.70;68.20
10270;DHT22;70826;50.930;5.334;2024-01-06T01:55:52;20.70;68.20
10270;DHT22;70826;50.930;5.334;2024-01-06T01:58:19;20.70;68.20
10270;DHT22;70826;50.930;5.334;2024-01-06T02:00:44;20.70;68.20
10270;DHT22;70826;50.930;5.334;2024-01-06T02:03:16;20.70;68.30
10270;DHT22;70826;50.930;5.334;2024-01-06T02:05:42;20.70;68.20
10270;DHT22;70826;50.930;5.334;2024-01-06T02:08:10;20.70;68.20
10270;DHT22;70826;50.930;5.334;2024-01-06T02:10:38;20.70;68.90
10270;DHT22;70826;50.930;5.334;2024-01-06T02:13:12;20.70;68.30
10270;DHT22;70826;50.930;5.334;2024-01-06T02:15:40;20.70;68.30
10270;DHT22;70826;50.930;5.334;2024-01-06T02:18:08;20.60;68.20
10270;DHT22;70826;50.930;5.334;2024-01-06T02:20:41;20.70;68.30
10270;DHT22;70826;50.930;5.334;2024-01-06T02:23:08;20.60;68.20
10270;DHT22;70826;50.930;5.334;2024-01-06T02:25:34;20.70;68.30
10270;DHT22;70826;50.930;5.334;2024-01-06T02:28:02;20.70;68.30
10270;DHT22;70826;50.930;5.334;2024-01-06T02:30:27;20.70;68.30
10270;DHT22;70826;50.930;5.334;2024-01-06T02:32:53;20.60;68.30
10270;DHT22;70826;50.930;5.334;2024-01-06T02:35:20;20.60;68.20
10270;DHT22;70826;50.930;5.334;2024-01-06T02:37:46;20.60;68.20
10270;DHT22;70826;50.930;5.334;2024-01-06T02:40:16;20.70;68.30
10270;DHT22;70826;50.930;5.334;2024-01-06T02:42:44;20.70;68.30
10270;DHT22;70826;50.930;5.334;2024-01-06T02:45:13;20.60;68.30
10270;DHT22;70826;50.930;5.334;2024-01-06T02:47:38;20.60;68.30
10270;DHT22;70826;50.930;5.334;2024-01-06T02:50:06;20.70;68.40
10270;DHT22;70826;50.930;5.334;2024-01-06T02:52:34;20.60;68.30
10270;DHT22;70826;50.930;5.334;2024-01-06T02:55:03;20.60;68.30
10270;DHT22;70826;50.930;5.334;2024-01-06T02:57:31;20.60;68.30
10270;DHT22;70826;50.930;5.334;2024-01-06T02:59:59;20.60;68.30
10270;DHT22;70826;50.930;5.334;2024-01-06T03:02:27;20.60;68.30
10270;DHT22;70826;50.930;5.334;2024-01-06T03:04:52;20.60;68.30
10270;DHT22;70826;50.930;5.334;2024-01-06T03:07:20;20.60;68.30
10270;DHT22;70826;50.930;5.334;2024-01-06T03:09:48;20.60;68.30
10270;DHT22;70826;50.930;5.334;2024-01-06T03:12:14;20.60;68.30
10270;DHT22;70826;50.930;5.334;2024-01-06T03:14:44;20.60;68.30
10270;DHT22;70826;50.930;5.334;2024-01-06T03:17:12;20.60;68.20
10270;DHT22;70826;50.930;5.334;2024-01-06T03:19:39;20.60;68.20
10270;DHT22;70826;50.930;5.334;2024-01-06T03:22:04;20.60;68.20
10270;DHT22;70826;50.930;5.334;2024-01-06T03:24:30;20.60;68.20
10270;DHT22;70826;50.930;5.334;2024-01-06T03:26:58;20.60;68.20
10270;DHT22;70826;50.930;5.334;2024-01-06T03:29:26;20.60;68.20
10270;DHT22;70826;50.930;5.334;2024-01-06T03:31:54;20.60;68.20
10270;DHT22;70826;50.930;5.334;2024-01-06T03:34:25;20.60;68.10
10270;DHT22;70826;50.930;5.334;2024-01-06T03:36:55;20.60;68.10
10270;DHT22;70826;50.930;5.334;2024-01-06T03:39:20;20.60;68.80
10270;DHT22;70826;50.930;5.334;2024-01-06T03:41:49;20.60;68.10
10270;DHT22;70826;50.930;5.334;2024-01-06T03:44:19;20.60;68.10
10270;DHT22;70826;50.930;5.334;2024-01-06T03:46:49;20.60;68.10
10270;DHT22;70826;50.930;5.334;2024-01-06T03:49:15;20.60;68.10
10270;DHT22;70826;50.930;5.334;2024-01-06T03:51:47;20.60;68.10
10270;DHT22;70826;50.930;5.334;2024-01-06T03:54:15;20.60;68.10
10270;DHT22;70826;50.930;5.334;2024-01-06T03:56:43;20.60;68.00
10270;DHT22;70826;50.930;5.334;2024-01-06T03:59:09;20.60;68.00
10270;DHT22;70826;50.930;5.334;2024-01-06T04:01:34;20.60;68.00
10270;DHT22;70826;50.930;5.334;2024-01-06T04:04:05;20.60;68.00
10270;DHT22;70826;50.930;5.334;2024-01-06T04:06:31;20.60;68.00
10270;DHT22;70826;50.930;5.334;2024-01-06T04:09:00;20.60;68.00
10270;DHT22;70826;50.930;5.334;2024-01-06T04:11:26;20.60;68.00
10270;DHT22;70826;50.930;5.334;2024-01-06T04:13:51;20.60;68.00
10270;DHT22;70826;50.930;5.334;2024-01-06T04:16:17;20.60;67.90
10270;DHT22;70826;50.930;5.334;2024-01-06T04:18:45;20.60;67.90
10270;DHT22;70826;50.930;5.334;2024-01-06T04:21:10;20.60;67.90
10270;DHT22;70826;50.930;5.334;2024-01-06T04:23:36;20.60;67.90
10270;DHT22;70826;50.930;5.334;2024-01-06T04:26:04;20.60;67.90
10270;DHT22;70826;50.930;5.334;2024-01-06T04:28:34;20.60;67.80
10270;DHT22;70826;50.930;5.334;2024-01-06T04:31:04;20.60;67.80
10270;DHT22;70826;50.930;5.334;2024-01-06T04:33:30;20.60;67.80
10270;DHT22;70826;50.930;5.334;2024-01-06T04:36:00;20.60;67.80
10270;DHT22;70826;50.930;5.334;2024-01-06T04:38:28;20.60;67.80
10270;DHT22;70826;50.930;5.334;2024-01-06T04:40:54;20.60;67.70
10270;DHT22;70826;50.930;5.334;2024-01-06T04:43:22;20.60;67.70
10270;DHT22;70826;50.930;5.334;2024-01-06T04:45:50;20.60;67.70
10270;DHT22;70826;50.930;5.334;2024-01-06T04:48:16;20.60;67.70
10270;DHT22;70826;50.930;5.334;2024-01-06T04:50:44;20.60;67.70
10270;DHT22;70826;50.930;5.334;2024-01-06T04:53:12;20.60;67.70
10270;DHT22;70826;50.930;5.334;2024-01-06T04:55:37;20.60;67.70
10270;DHT22;70826;50.930;5.334;2024-01-06T04:58:03;20.60;67.60
10270;DHT22;70826;50.930;5.334;2024-01-06T05:00:29;20.60;67.60
10270;DHT22;70826;50.930;5.334;2024-01-06T05:03:00;20.60;67.60
10270;DHT22;70826;50.930;5.334;2024-01-06T05:05:27;20.60;67.60
10270;DHT22;70826;50.930;5.334;2024-01-06T05:07:55;20.60;67.60
10270;DHT22;70826;50.930;5.334;2024-01-06T05:10:23;20.60;67.60
10270;DHT22;70826;50.930;5.334;2024-01-06T05:12:54;20.60;67.50
10270;DHT22;70826;50.930;5.334;2024-01-06T05:15:24;20.60;67.50
10270;DHT22;70826;50.930;5.334;2024-01-06T05:17:49;20.60;67.40
10270;DHT22;70826;50.930;5.334;2024-01-06T05:20:15;20.60;67.50
10270;DHT22;70826;50.930;5.334;2024-01-06T05:22:43;20.60;67.40
10270;DHT22;70826;50.930;5.334;2024-01-06T05:25:13;20.60;67.40
10270;DHT22;70826;50.930;5.334;2024-01-06T05:27:41;20.60;67.40
10270;DHT22;70826;50.930;5.334;2024-01-06T05:30:07;20.60;67.30
10270;DHT22;70826;50.930;5.334;2024-01-06T05:32:33;20.60;67.30
10270;DHT22;70826;50.930;5.334;2024-01-06T05:35:01;20.60;67.30
10270;DHT22;70826;50.930;5.334;2024-01-06T05:37:29;20.60;67.30
10270;DHT22;70826;50.930;5.334;2024-01-06T05:39:57;20.60;67.20
10270;DHT22;70826;50.930;5.334;2024-01-06T05:42:29;20.60;67.20
10270;DHT22;70826;50.930;5.334;2024-01-06T05:44:57;20.60;67.80
10270;DHT22;70826;50.930;5.334;2024-01-06T05:47:22;20.60;67.10
10270;DHT22;70826;50.930;5.334;2024-01-06T05:49:48;20.60;67.10
10270;DHT22;70826;50.930;5.334;2024-01-06T05:52:15;20.60;67.10
10270;DHT22;70826;50.930;5.334;2024-01-06T05:54:41;20.60;67.10
10270;DHT22;70826;50.930;5.334;2024-01-06T05:57:12;20.60;67.10
10270;DHT22;70826;50.930;5.334;2024-01-06T05:59:40;20.60;67.10
10270;DHT22;70826;50.930;5.334;2024-01-06T06:02:08;20.60;67.00
10270;DHT22;70826;50.930;5.334;2024-01-06T06:04:34;20.50;67.00
10270;DHT22;70826;50.930;5.334;2024-01-06T06:07:07;20.50;67.00
10270;DHT22;70826;50.930;5.334;2024-01-06T06:09:35;20.60;67.00
10270;DHT22;70826;50.930;5.334;2024-01-06T06:12:05;20.60;66.90
10270;DHT22;70826;50.930;5.334;2024-01-06T06:14:33;20.60;66.90
10270;DHT22;70826;50.930;5.334;2024-01-06T06:16:58;20.60;66.90
10270;DHT22;70826;50.930;5.334;2024-01-06T06:19:26;20.50;66.90
10270;DHT22;70826;50.930;5.334;2024-01-06T06:21:54;20.50;66.80
10270;DHT22;70826;50.930;5.334;2024-01-06T06:24:27;20.50;66.80
10270;DHT22;70826;50.930;5.334;2024-01-06T06:26:53;20.50;66.80
10270;DHT22;70826;50.930;5.334;2024-01-06T06:29:21;20.50;66.80
10270;DHT22;70826;50.930;5.334;2024-01-06T06:31:46;20.50;66.80
10270;DHT22;70826;50.930;5.334;2024-01-06T06:34:12;20.60;66.80
10270;DHT22;70826;50.930;5.334;2024-01-06T06:36:40;20.60;66.80
10270;DHT22;70826;50.930;5.334;2024-01-06T06:39:05;20.60;66.70
10270;DHT22;70826;50.930;5.334;2024-01-06T06:41:33;20.50;66.70
10270;DHT22;70826;50.930;5.334;2024-01-06T06:44:04;20.60;66.70
10270;DHT22;70826;50.930;5.334;2024-01-06T06:46:29;20.60;66.70
10270;DHT22;70826;50.930;5.334;2024-01-06T06:48:57;20.60;66.60
10270;DHT22;70826;50.930;5.334;2024-01-06T06:51:25;20.60;66.60
10270;DHT22;70826;50.930;5.334;2024-01-06T06:53:52;20.60;66.60
10270;DHT22;70826;50.930;5.334;2024-01-06T06:56:20;20.60;66.60
10270;DHT22;70826;50.930;5.334;2024-01-06T06:58:46;20.60;66.60
10270;DHT22;70826;50.930;5.334;2024-01-06T07:01:19;20.60;66.60
10270;DHT22;70826;50.930;5.334;2024-01-06T07:03:47;20.60;66.50
10270;DHT22;70826;50.930;5.334;2024-01-06T07:06:13;20.60;66.60
10270;DHT22;70826;50.930;5.334;2024-01-06T07:08:42;20.60;66.60
10270;DHT22;70826;50.930;5.334;2024-01-06T07:11:08;20.50;66.50
10270;DHT22;70826;50.930;5.334;2024-01-06T07:13:34;20.60;66.50
10270;DHT22;70826;50.930;5.334;2024-01-06T07:16:02;20.60;66.50
10270;DHT22;70826;50.930;5.334;2024-01-06T07:18:27;20.50;66.50
10270;DHT22;70826;50.930;5.334;2024-01-06T07:21:00;20.50;66.40
10270;DHT22;70826;50.930;5.334;2024-01-06T07:23:25;20.50;66.40
10270;DHT22;70826;50.930;5.334;2024-01-06T07:25:51;20.50;66.40
10270;DHT22;70826;50.930;5.334;2024-01-06T07:28:16;20.50;66.70
10270;DHT22;70826;50.930;5.334;2024-01-06T07:30:44;20.50;66.40
10270;DHT22;70826;50.930;5.334;2024-01-06T07:33:13;20.50;66.40
10270;DHT22;70826;50.930;5.334;2024-01-06T07:35:38;20.50;66.40
10270;DHT22;70826;50.930;5.334;2024-01-06T07:38:09;20.50;66.40
10270;DHT22;70826;50.930;5.334;2024-01-06T07:40:37;20.50;66.40
10270;DHT22;70826;50.930;5.334;2024-01-06T07:43:03;20.50;66.40
10270;DHT22;70826;50.930;5.334;2024-01-06T07:45:32;20.50;66.40
10270;DHT22;70826;50.930;5.334;2024-01-06T07:48:00;20.50;66.40
10270;DHT22;70826;50.930;5.334;2024-01-06T07:50:28;20.50;66.40
10270;DHT22;70826;50.930;5.334;2024-01-06T07:52:56;20.50;66.40
10270;DHT22;70826;50.930;5.334;2024-01-06T07:55:27;20.50;66.40
10270;DHT22;70826;50.930;5.334;2024-01-06T07:57:54;20.50;67.00
10270;DHT22;70826;50.930;5.334;2024-01-06T08:00:22;20.50;66.40
10270;DHT22;70826;50.930;5.334;2024-01-06T08:02:48;20.50;66.30
10270;DHT22;70826;50.930;5.334;2024-01-06T08:05:16;20.50;66.30
10270;DHT22;70826;50.930;5.334;2024-01-06T08:07:46;20.50;66.30
10270;DHT22;70826;50.930;5.334;2024-01-06T08:10:14;20.50;66.30
10270;DHT22;70826;50.930;5.334;2024-01-06T08:12:40;20.50;66.30
10270;DHT22;70826;50.930;5.334;2024-01-06T08:15:06;20.60;66.30
10270;DHT22;70826;50.930;5.334;2024-01-06T08:17:35;20.50;66.30
10270;DHT22;70826;50.930;5.334;2024-01-06T08:20:03;20.50;66.30
10270;DHT22;70826;50.930;5.334;2024-01-06T08:22:32;20.50;66.30
10270;DHT22;70826;50.930;5.334;2024-01-06T08:24:57;20.60;66.30
10270;DHT22;70826;50.930;5.334;2024-01-06T08:27:23;20.50;66.30
10270;DHT22;70826;50.930;5.334;2024-01-06T08:29:49;20.50;66.30
10270;DHT22;70826;50.930;5.334;2024-01-06T08:32:17;20.50;66.30
10270;DHT22;70826;50.930;5.334;2024-01-06T08:34:45;20.50;66.20
10270;DHT22;70826;50.930;5.334;2024-01-06T08:37:13;20.50;66.20
10270;DHT22;70826;50.930;5.334;2024-01-06T08:39:43;20.50;66.30
10270;DHT22;70826;50.930;5.334;2024-01-06T08:42:09;20.50;66.30
10270;DHT22;70826;50.930;5.334;2024-01-06T08:44:37;20.50;66.20
10270;DHT22;70826;50.930;5.334;2024-01-06T08:47:07;20.50;66.20
10270;DHT22;70826;50.930;5.334;2024-01-06T08:49:35;20.50;66.20
10270;DHT22;70826;50.930;5.334;2024-01-06T08:52:06;20.50;66.20
10270;DHT22;70826;50.930;5.334;2024-01-06T08:54:36;20.60;66.20
10270;DHT22;70826;50.930;5.334;2024-01-06T08:57:04;20.50;66.10
10270;DHT22;70826;50.930;5.334;2024-01-06T08:59:30;20.50;66.10
10270;DHT22;70826;50.930;5.334;2024-01-06T09:01:55;20.50;66.10
10270;DHT22;70826;50.930;5.334;2024-01-06T09:04:22;20.50;66.10
10270;DHT22;70826;50.930;5.334;2024-01-06T09:06:50;20.50;66.10
10270;DHT22;70826;50.930;5.334;2024-01-06T09:09:16;20.50;66.10
10270;DHT22;70826;50.930;5.334;2024-01-06T09:11:44;20.50;66.10
10270;DHT22;70826;50.930;5.334;2024-01-06T09:14:16;20.50;66.00
10270;DHT22;70826;50.930;5.334;2024-01-06T09:16:42;20.50;66.10
10270;DHT22;70826;50.930;5.334;2024-01-06T09:19:09;20.50;66.00
10270;DHT22;70826;50.930;5.334;2024-01-06T09:21:35;20.50;66.00
10270;DHT22;70826;50.930;5.334;2024-01-06T09:24:01;20.50;66.00
10270;DHT22;70826;50.930;5.334;2024-01-06T09:26:34;20.50;66.00
10270;DHT22;70826;50.930;5.334;2024-01-06T09:29:04;20.50;66.00
10270;DHT22;70826;50.930;5.334;2024-01-06T09:31:32;20.50;66.00
10270;DHT22;70826;50.930;5.334;2024-01-06T09:34:03;20.50;65.90
10270;DHT22;70826;50.930;5.334;2024-01-06T09:36:34;20.50;65.90
10270;DHT22;70826;50.930;5.334;2024-01-06T09:39:05;20.50;65.90
10270;DHT22;70826;50.930;5.334;2024-01-06T09:41:33;20.50;65.90
10270;DHT22;70826;50.930;5.334;2024-01-06T09:44:01;20.50;66.00
10270;DHT22;70826;50.930;5.334;2024-01-06T09:46:29;20.50;65.90
10270;DHT22;70826;50.930;5.334;2024-01-06T09:48:58;20.50;66.00
10270;DHT22;70826;50.930;5.334;2024-01-06T09:51:27;20.50;66.00
10270;DHT22;70826;50.930;5.334;2024-01-06T09:54:08;20.50;66.00
10270;DHT22;70826;50.930;5.334;2024-01-06T09:56:36;20.50;65.90
10270;DHT22;70826;50.930;5.334;2024-01-06T09:59:06;20.50;65.90
10270;DHT22;70826;50.930;5.334;2024-01-06T10:01:39;20.50;65.90
10270;DHT22;70826;50.930;5.334;2024-01-06T10:04:07;20.50;65.90
10270;DHT22;70826;50.930;5.334;2024-01-06T10:06:35;20.50;65.90
10270;DHT22;70826;50.930;5.334;2024-01-06T10:09:04;20.50;65.90
10270;DHT22;70826;50.930;5.334;2024-01-06T10:11:30;20.50;66.00
10270;DHT22;70826;50.930;5.334;2024-01-06T10:13:56;20.50;65.90
10270;DHT22;70826;50.930;5.334;2024-01-06T10:16:22;20.50;65.90
10270;DHT22;70826;50.930;5.334;2024-01-06T10:18:50;20.50;65.90
10270;DHT22;70826;50.930;5.334;2024-01-06T10:21:20;20.50;65.90
10270;DHT22;70826;50.930;5.334;2024-01-06T10:23:50;20.50;65.90
10270;DHT22;70826;50.930;5.334;2024-01-06T10:26:18;20.50;65.80
10270;DHT22;70826;50.930;5.334;2024-01-06T10:28:48;20.50;65.90
10270;DHT22;70826;50.930;5.334;2024-01-06T10:31:20;20.50;65.90
10270;DHT22;70826;50.930;5.334;2024-01-06T10:33:48;20.50;65.80
10270;DHT22;70826;50.930;5.334;2024-01-06T10:36:13;20.50;65.80
10270;DHT22;70826;50.930;5.334;2024-01-06T10:38:43;20.50;65.80
10270;DHT22;70826;50.930;5.334;2024-01-06T10:41:11;20.50;65.80
10270;DHT22;70826;50.930;5.334;2024-01-06T10:43:37;20.50;65.80
10270;DHT22;70826;50.930;5.334;2024-01-06T10:46:09;20.50;65.80
10270;DHT22;70826;50.930;5.334;2024-01-06T10:48:42;20.50;65.80
10270;DHT22;70826;50.930;5.334;2024-01-06T10:51:13;20.50;65.80
10270;DHT22;70826;50.930;5.334;2024-01-06T10:53:42;20.50;65.80
10270;DHT22;70826;50.930;5.334;2024-01-06T10:56:13;20.50;65.70
10270;DHT22;70826;50.930;5.334;2024-01-06T10:58:48;20.50;65.70
10270;DHT22;70826;50.930;5.334;2024-01-06T11:01:21;20.50;65.70
10270;DHT22;70826;50.930;5.334;2024-01-06T11:03:52;20.50;65.70
10270;DHT22;70826;50.930;5.334;2024-01-06T11:06:21;20.50;65.70
10270;DHT22;70826;50.930;5.334;2024-01-06T11:09:24;20.50;65.70
10270;DHT22;70826;50.930;5.334;2024-01-06T11:11:53;20.50;65.70
10270;DHT22;70826;50.930;5.334;2024-01-06T11:14:25;20.50;65.60
10270;DHT22;70826;50.930;5.334;2024-01-06T11:16:52;20.50;65.60
10270;DHT22;70826;50.930;5.334;2024-01-06T11:22:30;20.50;65.60
10270;DHT22;70826;50.930;5.334;2024-01-06T11:25:08;20.50;65.60
10270;DHT22;70826;50.930;5.334;2024-01-06T11:27:39;20.50;65.60
10270;DHT22;70826;50.930;5.334;2024-01-06T11:30:22;20.50;65.60
10270;DHT22;70826;50.930;5.334;2024-01-06T11:32:51;20.50;65.60
10270;DHT22;70826;50.930;5.334;2024-01-06T11:35:21;20.50;65.50
10270;DHT22;70826;50.930;5.334;2024-01-06T11:40:24;20.50;65.60
10270;DHT22;70826;50.930;5.334;2024-01-06T11:43:12;20.50;65.60
10270;DHT22;70826;50.930;5.334;2024-01-06T11:45:46;20.50;65.60
10270;DHT22;70826;50.930;5.334;2024-01-06T11:48:14;20.50;65.50
10270;DHT22;70826;50.930;5.334;2024-01-06T11:50:41;20.50;65.60
10270;DHT22;70826;50.930;5.334;2024-01-06T11:53:10;20.50;65.60
10270;DHT22;70826;50.930;5.334;2024-01-06T11:55:35;20.50;65.60
10270;DHT22;70826;50.930;5.334;2024-01-06T11:58:07;20.50;65.50
10270;DHT22;70826;50.930;5.334;2024-01-06T12:00:34;20.50;65.60
10270;DHT22;70826;50.930;5.334;2024-01-06T12:03:01;20.50;65.50
10270;DHT22;70826;50.930;5.334;2024-01-06T12:05:34;20.50;65.50
10270;DHT22;70826;50.930;5.334;2024-01-06T12:08:01;20.50;65.50
10270;DHT22;70826;50.930;5.334;2024-01-06T12:10:32;20.50;65.50
10270;DHT22;70826;50.930;5.334;2024-01-06T12:13:06;20.50;65.50
10270;DHT22;70826;50.930;5.334;2024-01-06T12:15:34;20.50;65.40
10270;DHT22;70826;50.930;5.334;2024-01-06T12:18:03;20.50;65.40
10270;DHT22;70826;50.930;5.334;2024-01-06T12:20:29;20.50;65.40
10270;DHT22;70826;50.930;5.334;2024-01-06T12:22:58;20.50;65.50
10270;DHT22;70826;50.930;5.334;2024-01-06T12:25:27;20.50;65.50
10270;DHT22;70826;50.930;5.334;2024-01-06T12:27:56;20.50;65.40
10270;DHT22;70826;50.930;5.334;2024-01-06T12:30:24;20.50;65.40
10270;DHT22;70826;50.930;5.334;2024-01-06T12:32:53;20.50;65.40
10270;DHT22;70826;50.930;5.334;2024-01-06T12:35:20;20.50;65.40
10270;DHT22;70826;50.930;5.334;2024-01-06T12:37:49;20.50;65.40
10270;DHT22;70826;50.930;5.334;2024-01-06T12:40:18;20.50;65.40
10270;DHT22;70826;50.930;5.334;2024-01-06T12:42:48;20.50;65.40
10270;DHT22;70826;50.930;5.334;2024-01-06T12:45:13;20.50;65.40
10270;DHT22;70826;50.930;5.334;2024-01-06T12:47:41;20.50;65.40
10270;DHT22;70826;50.930;5.334;2024-01-06T12:50:07;20.50;65.40
10270;DHT22;70826;50.930;5.334;2024-01-06T12:52:36;20.50;65.40
10270;DHT22;70826;50.930;5.334;2024-01-06T12:55:03;20.50;65.40
10270;DHT22;70826;50.930;5.334;2024-01-06T12:57:31;20.50;65.40
10270;DHT22;70826;50.930;5.334;2024-01-06T12:59:57;20.50;65.30
10270;DHT22;70826;50.930;5.334;2024-01-06T13:02:23;20.50;65.40
10270;DHT22;70826;50.930;5.334;2024-01-06T13:04:51;20.50;65.30
10270;DHT22;70826;50.930;5.334;2024-01-06T13:07:21;20.50;65.30
10270;DHT22;70826;50.930;5.334;2024-01-06T13:09:51;20.50;65.30
10270;DHT22;70826;50.930;5.334;2024-01-06T13:12:17;20.50;65.30
10270;DHT22;70826;50.930;5.334;2024-01-06T13:14:46;20.50;65.30
10270;DHT22;70826;50.930;5.334;2024-01-06T13:17:18;20.50;65.30
10270;DHT22;70826;50.930;5.334;2024-01-06T13:19:49;20.50;65.20
10270;DHT22;70826;50.930;5.334;2024-01-06T13:22:21;20.50;65.20
10270;DHT22;70826;50.930;5.334;2024-01-06T13:24:49;20.50;65.20
10270;DHT22;70826;50.930;5.334;2024-01-06T13:27:17;20.50;65.20
10270;DHT22;70826;50.930;5.334;2024-01-06T13:29:45;20.50;65.20
10270;DHT22;70826;50.930;5.334;2024-01-06T13:32:11;20.50;65.20
10270;DHT22;70826;50.930;5.334;2024-01-06T13:34:40;20.50;65.20
10270;DHT22;70826;50.930;5.334;2024-01-06T13:37:07;20.40;65.10
10270;DHT22;70826;50.930;5.334;2024-01-06T13:39:33;20.50;65.10
10270;DHT22;70826;50.930;5.334;2024-01-06T13:41:58;20.50;65.10
10270;DHT22;70826;50.930;5.334;2024-01-06T13:44:24;20.50;65.10
10270;DHT22;70826;50.930;5.334;2024-01-06T13:46:50;20.40;65.00
10270;DHT22;70826;50.930;5.334;2024-01-06T13:49:17;20.50;65.10
10270;DHT22;70826;50.930;5.334;2024-01-06T13:51:43;20.50;65.10
10270;DHT22;70826;50.930;5.334;2024-01-06T13:54:12;20.40;64.90
10270;DHT22;70826;50.930;5.334;2024-01-06T13:56:38;20.50;65.00
10270;DHT22;70826;50.930;5.334;2024-01-06T13:59:06;20.50;65.00
10270;DHT22;70826;50.930;5.334;2024-01-06T14:01:32;20.40;64.90
10270;DHT22;70826;50.930;5.334;2024-01-06T14:03:58;20.50;64.90
10270;DHT22;70826;50.930;5.334;2024-01-06T14:06:27;20.40;64.80
10270;DHT22;70826;50.930;5.334;2024-01-06T14:08:56;20.40;64.80
10270;DHT22;70826;50.930;5.334;2024-01-06T14:11:22;20.50;64.80
10270;DHT22;70826;50.930;5.334;2024-01-06T14:13:53;20.50;64.90
10270;DHT22;70826;50.930;5.334;2024-01-06T14:16:19;20.40;64.70
10270;DHT22;70826;50.930;5.334;2024-01-06T14:18:47;20.50;64.80
10270;DHT22;70826;50.930;5.334;2024-01-06T14:21:12;20.50;64.70
10270;DHT22;70826;50.930;5.334;2024-01-06T14:23:47;20.50;64.70
10270;DHT22;70826;50.930;5.334;2024-01-06T14:26:20;20.40;64.60
10270;DHT22;70826;50.930;5.334;2024-01-06T14:28:46;20.40;64.60
10270;DHT22;70826;50.930;5.334;2024-01-06T14:31:12;20.50;64.60
10270;DHT22;70826;50.930;5.334;2024-01-06T14:33:42;20.50;64.70
10270;DHT22;70826;50.930;5.334;2024-01-06T14:36:14;20.50;64.60
10270;DHT22;70826;50.930;5.334;2024-01-06T14:38:45;20.40;64.60
10270;DHT22;70826;50.930;5.334;2024-01-06T14:41:15;20.50;64.60
10270;DHT22;70826;50.930;5.334;2024-01-06T14:43:41;20.50;64.60
10270;DHT22;70826;50.930;5.334;2024-01-06T14:46:09;20.50;64.60
10270;DHT22;70826;50.930;5.334;2024-01-06T14:48:37;20.40;64.60
10270;DHT22;70826;50.930;5.334;2024-01-06T14:51:03;20.40;64.60
10270;DHT22;70826;50.930;5.334;2024-01-06T14:53:33;20.40;64.50
10270;DHT22;70826;50.930;5.334;2024-01-06T14:56:04;20.40;64.50
10270;DHT22;70826;50.930;5.334;2024-01-06T14:58:30;20.40;64.50
10270;DHT22;70826;50.930;5.334;2024-01-06T15:00:58;20.40;64.50
10270;DHT22;70826;50.930;5.334;2024-01-06T15:03:28;20.40;64.50
10270;DHT22;70826;50.930;5.334;2024-01-06T15:05:56;20.40;64.50
10270;DHT22;70826;50.930;5.334;2024-01-06T15:08:24;20.40;64.40
10270;DHT22;70826;50.930;5.334;2024-01-06T15:10:50;20.40;64.40
10270;DHT22;70826;50.930;5.334;2024-01-06T15:13:16;20.40;65.10
10270;DHT22;70826;50.930;5.334;2024-01-06T15:15:44;20.40;64.40
10270;DHT22;70826;50.930;5.334;2024-01-06T15:18:13;20.40;64.40
10270;DHT22;70826;50.930;5.334;2024-01-06T15:20:41;20.40;64.40
10270;DHT22;70826;50.930;5.334;2024-01-06T15:23:07;20.40;64.40
10270;DHT22;70826;50.930;5.334;2024-01-06T15:25:32;20.40;64.40
10270;DHT22;70826;50.930;5.334;2024-01-06T15:28:00;20.40;64.40
10270;DHT22;70826;50.930;5.334;2024-01-06T15:30:26;20.40;64.30
10270;DHT22;70826;50.930;5.334;2024-01-06T15:32:53;20.40;64.30
10270;DHT22;70826;50.930;5.334;2024-01-06T15:35:24;20.40;64.30
10270;DHT22;70826;50.930;5.334;2024-01-06T15:37:52;20.40;64.30
10270;DHT22;70826;50.930;5.334;2024-01-06T15:40:22;20.40;64.30